Birmingham-Shuttlesworth International Airport Birmingham US
ICAO: KBHM
IATA: BHM
Category: Large
Scheduled Services: Yes

Elevation: 650 ft
TransAlt. 18000 ft.

Airport Communications:
APP/DEP:123.8
ATIS:119.4
CLNC DEL:125.675
GND:121.7
ARNG OPS:38.7
ANG COMD POST:28.73
ANNISTON RDO:122.2
TWR:119.9
UNICOM:122.95

KBHM Zoom In..

If you have problems with the map follow the link
https://www.worldairports.se/pages/airport.php?
ICAO=KBHM

Runways:

(A) RW 06 length 11998 ft width 150 ft
ILS 110.30 / hdg 58

(B) RW 18 length 7099 ft width 150 ft
LOC 111.30 / hdg 183

(C) RW 24 length 11998 ft width 150 ft
ILS 109.50 / hdg 238

(D) RW 36 length 7099 ft width 150 ft
LOC 111.30 / hdg 3

Location; KBHM
Day. 27 / Time. 00.53 Zulu
* Altimeter: 30.05
* Temperature: 11° c. 51.8°f.
* Wind from: 170° Speed 04 kn.
Dewpoint: 03° c.
Visibility: 10 Statute Miles.
Clouds: Overcast 5000 ft.

KBHM 270053Z 17004KT 10SM OVC050 11/03 A3005 RMK AO2 SLP175 T01060028


Wind From 170°
Speed 04 kn.

 
 
jpsmedia worldairports.se 2020   terms of use